sensor_id;sensor_type;location;lat;lon;timestamp;P1;durP1;ratioP1;P2;durP2;ratioP2
10132;SDS011;5106;50.926;7.080;2022-07-03T00:01:46;4.22;;;1.70;;
10132;SDS011;5106;50.926;7.080;2022-07-03T00:04:12;2.88;;;1.50;;
10132;SDS011;5106;50.926;7.080;2022-07-03T00:06:37;2.88;;;1.80;;
10132;SDS011;5106;50.926;7.080;2022-07-03T00:09:04;3.20;;;1.90;;
10132;SDS011;5106;50.926;7.080;2022-07-03T00:11:31;3.28;;;1.60;;
10132;SDS011;5106;50.926;7.080;2022-07-03T00:13:57;2.22;;;1.60;;
10132;SDS011;5106;50.926;7.080;2022-07-03T00:16:23;2.97;;;1.65;;
10132;SDS011;5106;50.926;7.080;2022-07-03T00:18:49;4.10;;;1.95;;
10132;SDS011;5106;50.926;7.080;2022-07-03T00:21:16;2.50;;;1.80;;
10132;SDS011;5106;50.926;7.080;2022-07-03T00:23:58;3.10;;;1.70;;
10132;SDS011;5106;50.926;7.080;2022-07-03T00:26:29;4.45;;;1.80;;
10132;SDS011;5106;50.926;7.080;2022-07-03T00:28:59;3.75;;;1.75;;
10132;SDS011;5106;50.926;7.080;2022-07-03T00:31:27;2.05;;;1.60;;
10132;SDS011;5106;50.926;7.080;2022-07-03T00:33:56;4.13;;;1.70;;
10132;SDS011;5106;50.926;7.080;2022-07-03T00:36:24;2.40;;;1.50;;
10132;SDS011;5106;50.926;7.080;2022-07-03T00:38:54;3.88;;;1.55;;
10132;SDS011;5106;50.926;7.080;2022-07-03T00:41:27;2.75;;;1.60;;
10132;SDS011;5106;50.926;7.080;2022-07-03T00:43:54;3.72;;;1.70;;
10132;SDS011;5106;50.926;7.080;2022-07-03T00:46:20;2.63;;;1.80;;
10132;SDS011;5106;50.926;7.080;2022-07-03T00:48:49;4.18;;;1.60;;
10132;SDS011;5106;50.926;7.080;2022-07-03T00:51:17;3.40;;;1.80;;
10132;SDS011;5106;50.926;7.080;2022-07-03T00:53:55;2.92;;;1.80;;
10132;SDS011;5106;50.926;7.080;2022-07-03T00:56:23;3.72;;;1.80;;
10132;SDS011;5106;50.926;7.080;2022-07-03T00:58:54;1.90;;;1.50;;
10132;SDS011;5106;50.926;7.080;2022-07-03T01:01:22;3.17;;;1.70;;
10132;SDS011;5106;50.926;7.080;2022-07-03T01:03:57;2.17;;;1.75;;
10132;SDS011;5106;50.926;7.080;2022-07-03T01:06:53;2.97;;;1.73;;
10132;SDS011;5106;50.926;7.080;2022-07-03T01:09:37;1.80;;;1.48;;
10132;SDS011;5106;50.926;7.080;2022-07-03T01:12:06;2.10;;;1.55;;
10132;SDS011;5106;50.926;7.080;2022-07-03T01:14:47;4.70;;;1.73;;
10132;SDS011;5106;50.926;7.080;2022-07-03T01:17:31;3.00;;;1.80;;
10132;SDS011;5106;50.926;7.080;2022-07-03T01:20:01;2.28;;;1.67;;
10132;SDS011;5106;50.926;7.080;2022-07-03T01:22:44;1.75;;;1.60;;
10132;SDS011;5106;50.926;7.080;2022-07-03T01:25:23;2.00;;;1.75;;
10132;SDS011;5106;50.926;7.080;2022-07-03T01:27:57;2.75;;;1.50;;
10132;SDS011;5106;50.926;7.080;2022-07-03T01:30:24;2.42;;;1.58;;
10132;SDS011;5106;50.926;7.080;2022-07-03T01:32:54;3.38;;;1.63;;
10132;SDS011;5106;50.926;7.080;2022-07-03T01:35:28;2.00;;;1.70;;
10132;SDS011;5106;50.926;7.080;2022-07-03T01:38:00;2.03;;;1.83;;
10132;SDS011;5106;50.926;7.080;2022-07-03T01:40:28;2.92;;;1.52;;
10132;SDS011;5106;50.926;7.080;2022-07-03T01:42:56;2.22;;;1.60;;
10132;SDS011;5106;50.926;7.080;2022-07-03T01:45:23;2.42;;;1.50;;
10132;SDS011;5106;50.926;7.080;2022-07-03T01:47:53;2.13;;;1.63;;
10132;SDS011;5106;50.926;7.080;2022-07-03T01:50:21;3.22;;;1.70;;
10132;SDS011;5106;50.926;7.080;2022-07-03T01:52:49;2.88;;;1.77;;
10132;SDS011;5106;50.926;7.080;2022-07-03T01:55:15;2.08;;;1.58;;
10132;SDS011;5106;50.926;7.080;2022-07-03T02:00:11;2.50;;;1.70;;
10132;SDS011;5106;50.926;7.080;2022-07-03T02:02:42;1.67;;;1.50;;
10132;SDS011;5106;50.926;7.080;2022-07-03T02:08:15;3.40;;;2.17;;
10132;SDS011;5106;50.926;7.080;2022-07-03T02:11:08;3.03;;;1.88;;
10132;SDS011;5106;50.926;7.080;2022-07-03T02:19:34;3.67;;;2.05;;
10132;SDS011;5106;50.926;7.080;2022-07-03T02:22:08;4.25;;;1.70;;
10132;SDS011;5106;50.926;7.080;2022-07-03T02:24:46;2.83;;;1.90;;
10132;SDS011;5106;50.926;7.080;2022-07-03T02:27:22;2.38;;;1.85;;
10132;SDS011;5106;50.926;7.080;2022-07-03T02:29:54;2.42;;;1.90;;
10132;SDS011;5106;50.926;7.080;2022-07-03T02:32:27;2.65;;;1.77;;
10132;SDS011;5106;50.926;7.080;2022-07-03T02:35:01;2.20;;;1.77;;
10132;SDS011;5106;50.926;7.080;2022-07-03T02:37:30;3.15;;;2.00;;
10132;SDS011;5106;50.926;7.080;2022-07-03T02:40:03;2.67;;;2.10;;
10132;SDS011;5106;50.926;7.080;2022-07-03T02:42:35;2.30;;;1.90;;
10132;SDS011;5106;50.926;7.080;2022-07-03T02:45:08;2.70;;;1.88;;
10132;SDS011;5106;50.926;7.080;2022-07-03T02:50:37;2.58;;;1.70;;
10132;SDS011;5106;50.926;7.080;2022-07-03T02:53:07;2.25;;;2.00;;
10132;SDS011;5106;50.926;7.080;2022-07-03T02:55:42;4.47;;;2.28;;
10132;SDS011;5106;50.926;7.080;2022-07-03T03:04:07;4.10;;;1.85;;
10132;SDS011;5106;50.926;7.080;2022-07-03T03:06:40;3.08;;;1.75;;
10132;SDS011;5106;50.926;7.080;2022-07-03T03:09:13;2.97;;;2.10;;
10132;SDS011;5106;50.926;7.080;2022-07-03T03:11:44;2.30;;;1.92;;
10132;SDS011;5106;50.926;7.080;2022-07-03T03:14:11;5.15;;;2.08;;
10132;SDS011;5106;50.926;7.080;2022-07-03T03:16:42;2.83;;;2.00;;
10132;SDS011;5106;50.926;7.080;2022-07-03T03:19:12;3.17;;;2.10;;
10132;SDS011;5106;50.926;7.080;2022-07-03T03:21:42;3.28;;;2.00;;
10132;SDS011;5106;50.926;7.080;2022-07-03T03:24:16;5.55;;;1.90;;
10132;SDS011;5106;50.926;7.080;2022-07-03T03:26:43;5.05;;;1.90;;
10132;SDS011;5106;50.926;7.080;2022-07-03T03:29:09;2.55;;;1.95;;
10132;SDS011;5106;50.926;7.080;2022-07-03T03:31:34;3.20;;;1.95;;
10132;SDS011;5106;50.926;7.080;2022-07-03T03:34:00;3.03;;;1.90;;
10132;SDS011;5106;50.926;7.080;2022-07-03T03:36:27;4.10;;;1.95;;
10132;SDS011;5106;50.926;7.080;2022-07-03T03:38:54;3.63;;;2.17;;
10132;SDS011;5106;50.926;7.080;2022-07-03T03:41:20;2.17;;;1.90;;
10132;SDS011;5106;50.926;7.080;2022-07-03T03:43:46;1.77;;;1.65;;
10132;SDS011;5106;50.926;7.080;2022-07-03T03:46:12;3.38;;;2.10;;
10132;SDS011;5106;50.926;7.080;2022-07-03T03:48:39;3.22;;;2.25;;
10132;SDS011;5106;50.926;7.080;2022-07-03T03:51:05;2.60;;;1.80;;
10132;SDS011;5106;50.926;7.080;2022-07-03T03:53:32;4.70;;;2.05;;
10132;SDS011;5106;50.926;7.080;2022-07-03T03:56:02;3.58;;;2.13;;
10132;SDS011;5106;50.926;7.080;2022-07-03T03:58:30;3.10;;;2.15;;
10132;SDS011;5106;50.926;7.080;2022-07-03T04:00:58;3.03;;;2.10;;
10132;SDS011;5106;50.926;7.080;2022-07-03T04:03:24;4.10;;;2.20;;
10132;SDS011;5106;50.926;7.080;2022-07-03T04:05:51;1.88;;;1.73;;
10132;SDS011;5106;50.926;7.080;2022-07-03T04:08:18;2.15;;;1.80;;
10132;SDS011;5106;50.926;7.080;2022-07-03T04:10:44;2.50;;;2.03;;
10132;SDS011;5106;50.926;7.080;2022-07-03T04:13:10;2.85;;;1.95;;
10132;SDS011;5106;50.926;7.080;2022-07-03T04:15:35;3.78;;;2.28;;
10132;SDS011;5106;50.926;7.080;2022-07-03T04:18:01;2.20;;;2.00;;
10132;SDS011;5106;50.926;7.080;2022-07-03T04:20:27;2.53;;;1.77;;
10132;SDS011;5106;50.926;7.080;2022-07-03T04:22:55;3.08;;;1.98;;
10132;SDS011;5106;50.926;7.080;2022-07-03T04:25:21;3.22;;;2.03;;
10132;SDS011;5106;50.926;7.080;2022-07-03T04:27:47;3.13;;;2.00;;
10132;SDS011;5106;50.926;7.080;2022-07-03T04:30:13;4.03;;;1.95;;
10132;SDS011;5106;50.926;7.080;2022-07-03T04:32:39;4.45;;;2.03;;
10132;SDS011;5106;50.926;7.080;2022-07-03T04:35:11;3.97;;;2.03;;
10132;SDS011;5106;50.926;7.080;2022-07-03T04:37:37;2.22;;;2.00;;
10132;SDS011;5106;50.926;7.080;2022-07-03T04:40:02;2.65;;;2.17;;
10132;SDS011;5106;50.926;7.080;2022-07-03T04:42:28;3.72;;;1.90;;
10132;SDS011;5106;50.926;7.080;2022-07-03T04:44:54;5.03;;;2.10;;
10132;SDS011;5106;50.926;7.080;2022-07-03T04:47:20;3.38;;;2.05;;
10132;SDS011;5106;50.926;7.080;2022-07-03T04:49:46;3.10;;;2.08;;
10132;SDS011;5106;50.926;7.080;2022-07-03T04:52:11;3.35;;;1.98;;
10132;SDS011;5106;50.926;7.080;2022-07-03T04:54:37;2.58;;;2.05;;
10132;SDS011;5106;50.926;7.080;2022-07-03T04:57:03;1.88;;;1.70;;
10132;SDS011;5106;50.926;7.080;2022-07-03T04:59:29;3.08;;;1.83;;
10132;SDS011;5106;50.926;7.080;2022-07-03T05:01:55;3.55;;;1.80;;
10132;SDS011;5106;50.926;7.080;2022-07-03T05:04:21;3.08;;;1.88;;
10132;SDS011;5106;50.926;7.080;2022-07-03T05:06:47;3.85;;;2.10;;
10132;SDS011;5106;50.926;7.080;2022-07-03T05:09:13;2.20;;;1.88;;
10132;SDS011;5106;50.926;7.080;2022-07-03T05:11:39;2.55;;;2.00;;
10132;SDS011;5106;50.926;7.080;2022-07-03T05:14:06;5.47;;;2.28;;
10132;SDS011;5106;50.926;7.080;2022-07-03T05:16:32;2.17;;;1.95;;
10132;SDS011;5106;50.926;7.080;2022-07-03T05:18:57;3.00;;;2.13;;
10132;SDS011;5106;50.926;7.080;2022-07-03T05:21:24;2.30;;;2.10;;
10132;SDS011;5106;50.926;7.080;2022-07-03T05:23:51;3.00;;;2.00;;
10132;SDS011;5106;50.926;7.080;2022-07-03T05:26:17;2.08;;;1.85;;
10132;SDS011;5106;50.926;7.080;2022-07-03T05:28:43;4.93;;;2.25;;
10132;SDS011;5106;50.926;7.080;2022-07-03T05:31:09;4.03;;;2.25;;
10132;SDS011;5106;50.926;7.080;2022-07-03T05:33:35;3.78;;;2.00;;
10132;SDS011;5106;50.926;7.080;2022-07-03T05:36:01;2.80;;;2.05;;
10132;SDS011;5106;50.926;7.080;2022-07-03T05:38:27;2.20;;;2.00;;
10132;SDS011;5106;50.926;7.080;2022-07-03T05:41:11;3.03;;;1.88;;
10132;SDS011;5106;50.926;7.080;2022-07-03T05:43:37;5.32;;;2.08;;
10132;SDS011;5106;50.926;7.080;2022-07-03T05:46:02;5.38;;;2.60;;
10132;SDS011;5106;50.926;7.080;2022-07-03T05:48:29;2.65;;;1.80;;
10132;SDS011;5106;50.926;7.080;2022-07-03T05:50:55;4.15;;;2.00;;
10132;SDS011;5106;50.926;7.080;2022-07-03T05:53:21;2.45;;;2.03;;
10132;SDS011;5106;50.926;7.080;2022-07-03T05:55:47;4.18;;;2.17;;
10132;SDS011;5106;50.926;7.080;2022-07-03T05:58:13;7.95;;;2.28;;
10132;SDS011;5106;50.926;7.080;2022-07-03T06:00:39;5.35;;;2.35;;
10132;SDS011;5106;50.926;7.080;2022-07-03T06:03:05;3.28;;;2.30;;
10132;SDS011;5106;50.926;7.080;2022-07-03T06:05:31;3.03;;;2.05;;
10132;SDS011;5106;50.926;7.080;2022-07-03T06:07:57;2.85;;;2.00;;
10132;SDS011;5106;50.926;7.080;2022-07-03T06:10:23;3.28;;;2.40;;
10132;SDS011;5106;50.926;7.080;2022-07-03T06:12:49;2.80;;;2.25;;
10132;SDS011;5106;50.926;7.080;2022-07-03T06:15:15;3.88;;;2.47;;
10132;SDS011;5106;50.926;7.080;2022-07-03T06:17:41;2.92;;;2.10;;
10132;SDS011;5106;50.926;7.080;2022-07-03T06:20:09;3.65;;;2.20;;
10132;SDS011;5106;50.926;7.080;2022-07-03T06:22:35;2.40;;;1.90;;
10132;SDS011;5106;50.926;7.080;2022-07-03T06:25:01;2.63;;;2.10;;
10132;SDS011;5106;50.926;7.080;2022-07-03T06:27:27;4.75;;;2.10;;
10132;SDS011;5106;50.926;7.080;2022-07-03T06:30:00;3.35;;;2.20;;
10132;SDS011;5106;50.926;7.080;2022-07-03T06:32:26;4.93;;;2.05;;
10132;SDS011;5106;50.926;7.080;2022-07-03T06:34:51;3.38;;;2.33;;
10132;SDS011;5106;50.926;7.080;2022-07-03T06:37:17;2.75;;;2.20;;
10132;SDS011;5106;50.926;7.080;2022-07-03T06:39:43;2.42;;;2.20;;
10132;SDS011;5106;50.926;7.080;2022-07-03T06:42:09;3.10;;;2.00;;
10132;SDS011;5106;50.926;7.080;2022-07-03T06:44:35;4.18;;;2.33;;
10132;SDS011;5106;50.926;7.080;2022-07-03T06:47:00;3.42;;;2.15;;
10132;SDS011;5106;50.926;7.080;2022-07-03T06:49:28;3.63;;;2.35;;
10132;SDS011;5106;50.926;7.080;2022-07-03T06:51:54;3.15;;;2.35;;
10132;SDS011;5106;50.926;7.080;2022-07-03T06:54:20;2.45;;;2.00;;
10132;SDS011;5106;50.926;7.080;2022-07-03T06:56:46;2.70;;;2.00;;
10132;SDS011;5106;50.926;7.080;2022-07-03T06:59:12;4.35;;;2.30;;
10132;SDS011;5106;50.926;7.080;2022-07-03T07:01:37;3.03;;;2.10;;
10132;SDS011;5106;50.926;7.080;2022-07-03T07:04:03;2.88;;;2.00;;
10132;SDS011;5106;50.926;7.080;2022-07-03T07:06:29;3.38;;;2.08;;
10132;SDS011;5106;50.926;7.080;2022-07-03T07:08:54;4.35;;;2.15;;
10132;SDS011;5106;50.926;7.080;2022-07-03T07:11:20;3.25;;;2.28;;
10132;SDS011;5106;50.926;7.080;2022-07-03T07:13:46;4.72;;;2.45;;
10132;SDS011;5106;50.926;7.080;2022-07-03T07:16:12;4.45;;;2.30;;
10132;SDS011;5106;50.926;7.080;2022-07-03T07:18:39;4.10;;;2.30;;
10132;SDS011;5106;50.926;7.080;2022-07-03T07:21:06;5.78;;;2.80;;
10132;SDS011;5106;50.926;7.080;2022-07-03T07:23:31;4.55;;;2.50;;
10132;SDS011;5106;50.926;7.080;2022-07-03T07:25:58;6.13;;;2.60;;
10132;SDS011;5106;50.926;7.080;2022-07-03T07:28:23;3.80;;;2.05;;
10132;SDS011;5106;50.926;7.080;2022-07-03T07:30:49;1.98;;;1.70;;
10132;SDS011;5106;50.926;7.080;2022-07-03T07:33:19;3.92;;;2.30;;
10132;SDS011;5106;50.926;7.080;2022-07-03T07:35:44;5.22;;;2.30;;
10132;SDS011;5106;50.926;7.080;2022-07-03T07:38:10;3.72;;;2.20;;
10132;SDS011;5106;50.926;7.080;2022-07-03T07:40:36;4.07;;;2.20;;
10132;SDS011;5106;50.926;7.080;2022-07-03T07:43:02;2.85;;;2.28;;
10132;SDS011;5106;50.926;7.080;2022-07-03T07:45:28;4.55;;;2.20;;
10132;SDS011;5106;50.926;7.080;2022-07-03T07:47:53;4.38;;;2.17;;
10132;SDS011;5106;50.926;7.080;2022-07-03T07:50:19;4.05;;;1.92;;
10132;SDS011;5106;50.926;7.080;2022-07-03T07:52:44;5.35;;;1.98;;
10132;SDS011;5106;50.926;7.080;2022-07-03T07:55:10;5.50;;;2.00;;
10132;SDS011;5106;50.926;7.080;2022-07-03T07:57:39;2.80;;;1.73;;
10132;SDS011;5106;50.926;7.080;2022-07-03T08:00:09;3.28;;;1.90;;
10132;SDS011;5106;50.926;7.080;2022-07-03T08:02:37;4.20;;;2.15;;
10132;SDS011;5106;50.926;7.080;2022-07-03T08:05:21;4.68;;;2.10;;
10132;SDS011;5106;50.926;7.080;2022-07-03T08:10:27;4.28;;;1.90;;
10132;SDS011;5106;50.926;7.080;2022-07-03T08:12:53;3.42;;;2.10;;
10132;SDS011;5106;50.926;7.080;2022-07-03T08:15:19;2.88;;;2.10;;
10132;SDS011;5106;50.926;7.080;2022-07-03T08:17:44;3.22;;;1.95;;
10132;SDS011;5106;50.926;7.080;2022-07-03T08:20:10;3.17;;;1.95;;
10132;SDS011;5106;50.926;7.080;2022-07-03T08:22:36;8.55;;;2.20;;
10132;SDS011;5106;50.926;7.080;2022-07-03T08:25:01;5.40;;;2.33;;
10132;SDS011;5106;50.926;7.080;2022-07-03T08:27:27;2.70;;;1.85;;
10132;SDS011;5106;50.926;7.080;2022-07-03T08:29:53;4.47;;;1.88;;
10132;SDS011;5106;50.926;7.080;2022-07-03T08:32:18;4.25;;;2.13;;
10132;SDS011;5106;50.926;7.080;2022-07-03T08:34:44;4.72;;;1.80;;
10132;SDS011;5106;50.926;7.080;2022-07-03T08:37:10;4.72;;;1.98;;
10132;SDS011;5106;50.926;7.080;2022-07-03T08:39:35;3.58;;;1.90;;
10132;SDS011;5106;50.926;7.080;2022-07-03T08:42:01;6.10;;;2.17;;
10132;SDS011;5106;50.926;7.080;2022-07-03T08:44:27;2.28;;;1.60;;
10132;SDS011;5106;50.926;7.080;2022-07-03T08:46:54;3.05;;;2.30;;
10132;SDS011;5106;50.926;7.080;2022-07-03T08:49:21;5.28;;;2.20;;
10132;SDS011;5106;50.926;7.080;2022-07-03T08:51:47;5.43;;;2.22;;
10132;SDS011;5106;50.926;7.080;2022-07-03T08:54:14;5.15;;;2.20;;
10132;SDS011;5106;50.926;7.080;2022-07-03T08:56:40;6.78;;;2.30;;
10132;SDS011;5106;50.926;7.080;2022-07-03T08:59:07;5.88;;;2.40;;
10132;SDS011;5106;50.926;7.080;2022-07-03T09:01:33;6.35;;;2.47;;
10132;SDS011;5106;50.926;7.080;2022-07-03T09:03:59;4.43;;;2.50;;
10132;SDS011;5106;50.926;7.080;2022-07-03T09:06:26;3.42;;;2.40;;
10132;SDS011;5106;50.926;7.080;2022-07-03T09:08:58;5.45;;;2.30;;
10132;SDS011;5106;50.926;7.080;2022-07-03T09:11:28;4.07;;;2.17;;
10132;SDS011;5106;50.926;7.080;2022-07-03T09:13:53;3.10;;;2.33;;
10132;SDS011;5106;50.926;7.080;2022-07-03T09:16:19;4.63;;;2.53;;
10132;SDS011;5106;50.926;7.080;2022-07-03T09:18:45;6.28;;;2.20;;
10132;SDS011;5106;50.926;7.080;2022-07-03T09:21:11;4.53;;;2.30;;
10132;SDS011;5106;50.926;7.080;2022-07-03T09:23:41;4.85;;;2.10;;
10132;SDS011;5106;50.926;7.080;2022-07-03T09:26:15;4.32;;;1.95;;
10132;SDS011;5106;50.926;7.080;2022-07-03T09:28:49;4.07;;;2.25;;
10132;SDS011;5106;50.926;7.080;2022-07-03T09:31:17;5.90;;;2.10;;
10132;SDS011;5106;50.926;7.080;2022-07-03T09:33:51;2.97;;;1.88;;
10132;SDS011;5106;50.926;7.080;2022-07-03T09:36:21;2.80;;;1.95;;
10132;SDS011;5106;50.926;7.080;2022-07-03T09:38:48;4.65;;;1.85;;
10132;SDS011;5106;50.926;7.080;2022-07-03T09:41:13;2.72;;;1.52;;
10132;SDS011;5106;50.926;7.080;2022-07-03T09:43:43;3.08;;;1.83;;
10132;SDS011;5106;50.926;7.080;2022-07-03T09:46:09;4.72;;;2.22;;
10132;SDS011;5106;50.926;7.080;2022-07-03T09:56:20;2.28;;;1.80;;
10132;SDS011;5106;50.926;7.080;2022-07-03T10:01:31;4.40;;;1.65;;
10132;SDS011;5106;50.926;7.080;2022-07-03T10:06:56;2.75;;;1.70;;
10132;SDS011;5106;50.926;7.080;2022-07-03T10:11:54;4.15;;;2.00;;
10132;SDS011;5106;50.926;7.080;2022-07-03T10:14:21;3.58;;;1.80;;
10132;SDS011;5106;50.926;7.080;2022-07-03T10:16:51;3.13;;;1.70;;
10132;SDS011;5106;50.926;7.080;2022-07-03T10:19:18;2.65;;;1.50;;
10132;SDS011;5106;50.926;7.080;2022-07-03T10:21:55;2.22;;;1.55;;
10132;SDS011;5106;50.926;7.080;2022-07-03T10:24:23;2.85;;;1.70;;
10132;SDS011;5106;50.926;7.080;2022-07-03T10:26:51;4.03;;;1.45;;
10132;SDS011;5106;50.926;7.080;2022-07-03T10:29:20;2.53;;;1.48;;
10132;SDS011;5106;50.926;7.080;2022-07-03T10:31:47;3.08;;;1.40;;
10132;SDS011;5106;50.926;7.080;2022-07-03T10:34:23;3.95;;;1.48;;
10132;SDS011;5106;50.926;7.080;2022-07-03T10:37:02;3.53;;;1.55;;
10132;SDS011;5106;50.926;7.080;2022-07-03T10:39:33;2.38;;;1.50;;
10132;SDS011;5106;50.926;7.080;2022-07-03T10:42:13;2.72;;;1.58;;
10132;SDS011;5106;50.926;7.080;2022-07-03T10:47:37;2.53;;;1.50;;
10132;SDS011;5106;50.926;7.080;2022-07-03T10:50:06;4.63;;;1.73;;
10132;SDS011;5106;50.926;7.080;2022-07-03T10:52:48;2.65;;;1.60;;
10132;SDS011;5106;50.926;7.080;2022-07-03T10:55:15;2.05;;;1.60;;
10132;SDS011;5106;50.926;7.080;2022-07-03T10:58:27;4.40;;;1.70;;
10132;SDS011;5106;50.926;7.080;2022-07-03T11:00:52;2.95;;;1.42;;
10132;SDS011;5106;50.926;7.080;2022-07-03T11:09:12;2.70;;;1.60;;
10132;SDS011;5106;50.926;7.080;2022-07-03T11:11:42;2.60;;;1.42;;
10132;SDS011;5106;50.926;7.080;2022-07-03T11:14:21;2.60;;;1.52;;
10132;SDS011;5106;50.926;7.080;2022-07-03T11:16:48;2.72;;;1.50;;
10132;SDS011;5106;50.926;7.080;2022-07-03T11:19:34;1.95;;;1.40;;
10132;SDS011;5106;50.926;7.080;2022-07-03T11:21:59;1.85;;;1.27;;
10132;SDS011;5106;50.926;7.080;2022-07-03T11:27:13;2.10;;;1.50;;
10132;SDS011;5106;50.926;7.080;2022-07-03T11:29:47;2.67;;;1.42;;
10132;SDS011;5106;50.926;7.080;2022-07-03T11:35:08;2.60;;;1.60;;
10132;SDS011;5106;50.926;7.080;2022-07-03T11:37:33;2.85;;;1.40;;
10132;SDS011;5106;50.926;7.080;2022-07-03T11:40:02;1.80;;;1.30;;
10132;SDS011;5106;50.926;7.080;2022-07-03T11:42:35;4.40;;;1.60;;
10132;SDS011;5106;50.926;7.080;2022-07-03T11:45:00;5.20;;;1.65;;
10132;SDS011;5106;50.926;7.080;2022-07-03T11:47:27;2.50;;;1.60;;
10132;SDS011;5106;50.926;7.080;2022-07-03T11:49:53;2.90;;;1.60;;
10132;SDS011;5106;50.926;7.080;2022-07-03T11:52:31;3.72;;;1.55;;
10132;SDS011;5106;50.926;7.080;2022-07-03T11:54:58;2.15;;;1.38;;
10132;SDS011;5106;50.926;7.080;2022-07-03T11:57:24;3.08;;;1.40;;
10132;SDS011;5106;50.926;7.080;2022-07-03T11:59:50;2.72;;;1.63;;
10132;SDS011;5106;50.926;7.080;2022-07-03T12:02:19;4.32;;;1.50;;
10132;SDS011;5106;50.926;7.080;2022-07-03T12:04:44;2.38;;;1.50;;
10132;SDS011;5106;50.926;7.080;2022-07-03T12:07:10;5.45;;;1.83;;
10132;SDS011;5106;50.926;7.080;2022-07-03T12:09:36;2.03;;;1.42;;
10132;SDS011;5106;50.926;7.080;2022-07-03T12:17:15;4.20;;;1.65;;
10132;SDS011;5106;50.926;7.080;2022-07-03T12:19:51;3.42;;;1.48;;
10132;SDS011;5106;50.926;7.080;2022-07-03T12:22:36;2.58;;;1.50;;
10132;SDS011;5106;50.926;7.080;2022-07-03T12:25:07;4.03;;;1.40;;
10132;SDS011;5106;50.926;7.080;2022-07-03T12:27:34;2.47;;;1.67;;
10132;SDS011;5106;50.926;7.080;2022-07-03T12:30:05;2.70;;;1.60;;
10132;SDS011;5106;50.926;7.080;2022-07-03T12:32:32;3.10;;;1.65;;
10132;SDS011;5106;50.926;7.080;2022-07-03T12:34:58;2.50;;;1.50;;
10132;SDS011;5106;50.926;7.080;2022-07-03T12:37:34;2.95;;;1.58;;
10132;SDS011;5106;50.926;7.080;2022-07-03T12:40:02;3.00;;;1.58;;
10132;SDS011;5106;50.926;7.080;2022-07-03T12:42:28;2.83;;;1.55;;
10132;SDS011;5106;50.926;7.080;2022-07-03T12:44:54;2.35;;;1.45;;
10132;SDS011;5106;50.926;7.080;2022-07-03T12:47:24;2.53;;;1.50;;
10132;SDS011;5106;50.926;7.080;2022-07-03T12:50:00;2.17;;;1.50;;
10132;SDS011;5106;50.926;7.080;2022-07-03T12:52:27;2.47;;;1.55;;
10132;SDS011;5106;50.926;7.080;2022-07-03T12:54:54;2.70;;;1.40;;
10132;SDS011;5106;50.926;7.080;2022-07-03T12:57:21;3.35;;;1.50;;
10132;SDS011;5106;50.926;7.080;2022-07-03T13:00:16;2.15;;;1.50;;
10132;SDS011;5106;50.926;7.080;2022-07-03T13:02:52;2.17;;;1.58;;
10132;SDS011;5106;50.926;7.080;2022-07-03T13:05:21;1.80;;;1.20;;
10132;SDS011;5106;50.926;7.080;2022-07-03T13:07:52;2.15;;;1.30;;
10132;SDS011;5106;50.926;7.080;2022-07-03T13:10:23;3.65;;;1.48;;
10132;SDS011;5106;50.926;7.080;2022-07-03T13:12:56;1.77;;;1.38;;
10132;SDS011;5106;50.926;7.080;2022-07-03T13:15:27;1.98;;;1.42;;
10132;SDS011;5106;50.926;7.080;2022-07-03T13:20:19;2.60;;;1.45;;
10132;SDS011;5106;50.926;7.080;2022-07-03T13:22:49;4.43;;;1.55;;
10132;SDS011;5106;50.926;7.080;2022-07-03T13:25:14;5.05;;;1.30;;
10132;SDS011;5106;50.926;7.080;2022-07-03T13:27:40;2.42;;;1.20;;
10132;SDS011;5106;50.926;7.080;2022-07-03T13:30:08;2.88;;;1.33;;
10132;SDS011;5106;50.926;7.080;2022-07-03T13:32:34;1.90;;;1.40;;
10132;SDS011;5106;50.926;7.080;2022-07-03T13:34:59;4.15;;;1.70;;
10132;SDS011;5106;50.926;7.080;2022-07-03T13:37:25;2.45;;;1.33;;
10132;SDS011;5106;50.926;7.080;2022-07-03T13:39:51;3.03;;;1.45;;
10132;SDS011;5106;50.926;7.080;2022-07-03T13:42:16;1.58;;;1.23;;
10132;SDS011;5106;50.926;7.080;2022-07-03T13:44:42;3.85;;;1.50;;
10132;SDS011;5106;50.926;7.080;2022-07-03T13:47:08;3.20;;;1.38;;
10132;SDS011;5106;50.926;7.080;2022-07-03T13:49:33;3.67;;;1.40;;
10132;SDS011;5106;50.926;7.080;2022-07-03T13:51:59;2.17;;;1.50;;
10132;SDS011;5106;50.926;7.080;2022-07-03T13:54:25;2.38;;;1.38;;
10132;SDS011;5106;50.926;7.080;2022-07-03T13:56:51;3.57;;;1.60;;
10132;SDS011;5106;50.926;7.080;2022-07-03T13:59:17;1.90;;;1.15;;
10132;SDS011;5106;50.926;7.080;2022-07-03T14:01:43;3.40;;;1.35;;
10132;SDS011;5106;50.926;7.080;2022-07-03T14:04:09;2.45;;;1.42;;
10132;SDS011;5106;50.926;7.080;2022-07-03T14:06:35;4.85;;;1.40;;
10132;SDS011;5106;50.926;7.080;2022-07-03T14:09:01;2.55;;;1.23;;
10132;SDS011;5106;50.926;7.080;2022-07-03T14:11:28;2.55;;;1.20;;
10132;SDS011;5106;50.926;7.080;2022-07-03T14:13:53;3.38;;;1.40;;
10132;SDS011;5106;50.926;7.080;2022-07-03T14:16:19;2.13;;;1.40;;
10132;SDS011;5106;50.926;7.080;2022-07-03T14:18:45;4.03;;;1.55;;
10132;SDS011;5106;50.926;7.080;2022-07-03T14:21:11;3.13;;;1.33;;
10132;SDS011;5106;50.926;7.080;2022-07-03T14:23:37;2.15;;;1.20;;
10132;SDS011;5106;50.926;7.080;2022-07-03T14:26:03;3.67;;;1.20;;
10132;SDS011;5106;50.926;7.080;2022-07-03T14:28:29;1.77;;;1.30;;
10132;SDS011;5106;50.926;7.080;2022-07-03T14:31:13;1.73;;;1.30;;
10132;SDS011;5106;50.926;7.080;2022-07-03T14:33:44;1.70;;;1.20;;
10132;SDS011;5106;50.926;7.080;2022-07-03T14:36:10;3.17;;;1.55;;
10132;SDS011;5106;50.926;7.080;2022-07-03T14:38:36;2.17;;;1.40;;
10132;SDS011;5106;50.926;7.080;2022-07-03T14:41:01;3.28;;;1.45;;
10132;SDS011;5106;50.926;7.080;2022-07-03T14:43:27;3.75;;;1.23;;
10132;SDS011;5106;50.926;7.080;2022-07-03T14:45:53;2.38;;;1.10;;
10132;SDS011;5106;50.926;7.080;2022-07-03T14:48:19;2.92;;;1.48;;
10132;SDS011;5106;50.926;7.080;2022-07-03T14:50:45;2.10;;;1.40;;
10132;SDS011;5106;50.926;7.080;2022-07-03T14:53:11;2.90;;;1.60;;
10132;SDS011;5106;50.926;7.080;2022-07-03T14:55:38;2.33;;;1.50;;
10132;SDS011;5106;50.926;7.080;2022-07-03T14:58:08;3.72;;;1.67;;
10132;SDS011;5106;50.926;7.080;2022-07-03T15:00:43;2.10;;;1.30;;
10132;SDS011;5106;50.926;7.080;2022-07-03T15:03:34;1.45;;;1.10;;
10132;SDS011;5106;50.926;7.080;2022-07-03T15:06:01;1.77;;;1.30;;
10132;SDS011;5106;50.926;7.080;2022-07-03T15:11:02;1.90;;;1.40;;
10132;SDS011;5106;50.926;7.080;2022-07-03T15:13:32;3.92;;;1.30;;
10132;SDS011;5106;50.926;7.080;2022-07-03T15:15:59;1.83;;;1.20;;
10132;SDS011;5106;50.926;7.080;2022-07-03T15:18:25;1.50;;;1.17;;
10132;SDS011;5106;50.926;7.080;2022-07-03T15:20:53;3.45;;;1.30;;
10132;SDS011;5106;50.926;7.080;2022-07-03T15:23:18;2.85;;;1.45;;
10132;SDS011;5106;50.926;7.080;2022-07-03T15:25:45;1.67;;;1.20;;
10132;SDS011;5106;50.926;7.080;2022-07-03T15:28:12;1.38;;;1.25;;
10132;SDS011;5106;50.926;7.080;2022-07-03T15:30:49;2.92;;;1.63;;
10132;SDS011;5106;50.926;7.080;2022-07-03T15:33:16;2.92;;;1.13;;
10132;SDS011;5106;50.926;7.080;2022-07-03T15:35:48;1.70;;;1.20;;
10132;SDS011;5106;50.926;7.080;2022-07-03T15:38:20;2.65;;;1.30;;
10132;SDS011;5106;50.926;7.080;2022-07-03T15:40:53;1.50;;;1.00;;
10132;SDS011;5106;50.926;7.080;2022-07-03T15:59:51;3.05;;;1.60;;
10132;SDS011;5106;50.926;7.080;2022-07-03T16:02:25;2.08;;;1.50;;
10132;SDS011;5106;50.926;7.080;2022-07-03T16:05:02;5.13;;;1.58;;
10132;SDS011;5106;50.926;7.080;2022-07-03T16:07:29;2.30;;;1.42;;
10132;SDS011;5106;50.926;7.080;2022-07-03T16:09:58;2.95;;;2.53;;
10132;SDS011;5106;50.926;7.080;2022-07-03T16:12:24;4.30;;;1.77;;
10132;SDS011;5106;50.926;7.080;2022-07-03T16:14:51;3.40;;;1.60;;
10132;SDS011;5106;50.926;7.080;2022-07-03T16:17:18;1.63;;;1.23;;
10132;SDS011;5106;50.926;7.080;2022-07-03T16:19:45;2.58;;;1.42;;
10132;SDS011;5106;50.926;7.080;2022-07-03T16:22:13;2.83;;;1.40;;
10132;SDS011;5106;50.926;7.080;2022-07-03T16:24:40;4.00;;;1.25;;
10132;SDS011;5106;50.926;7.080;2022-07-03T16:27:07;1.55;;;1.25;;
10132;SDS011;5106;50.926;7.080;2022-07-03T16:29:40;3.90;;;1.45;;